Time;durP1;ratioP1;P1;durP2;ratioP2;P2;SDS_P1;SDS_P2;PMS_P1;PMS_P2;Temp;Humidity;BMP_temperature;BMP_pressure;BME280_temperature;BME280_humidity;BME280_pressure;Samples;Min_cycle;Max_cycle;Signal;HPM_P1;HPM_P2
2022/01/24 00:01:01;;;;;;;1.10;0.30;;;25.40;99.90;;;;;;5061547;28;20103;-75
2022/01/24 00:03:29;;;;;;;0.43;0.30;;;25.40;99.90;;;;;;5067260;28;20483;-74
2022/01/24 00:05:56;;;;;;;2.92;0.40;;;25.30;99.90;;;;;;5066165;28;20039;-75
2022/01/24 00:08:24;;;;;;;1.02;0.28;;;25.30;99.90;;;;;;5064653;28;20131;-75
2022/01/24 00:10:53;;;;;;;7.78;0.40;;;25.20;99.90;;;;;;5066167;28;20115;-74
2022/01/24 00:14:07;;;;;;;0.55;0.25;;;25.20;99.90;;;;;;5068216;28;20047;-75
2022/01/24 00:16:21;;;;;;;0.32;0.20;;;25.00;99.90;;;;;;5063068;28;20039;-75
2022/01/24 00:26:55;;;;;;;1.73;0.40;;;24.40;99.90;;;;;;5062151;28;20090;-74
2022/01/24 00:29:26;;;;;;;3.63;0.30;;;24.30;99.90;;;;;;5069694;28;20020;-75
2022/01/24 00:31:55;;;;;;;0.77;0.50;;;24.10;99.90;;;;;;5066800;28;20115;-74
2022/01/24 00:34:25;;;;;;;0.13;0.10;;;24.00;99.90;;;;;;5069788;28;20048;-76
2022/01/24 00:36:54;;;;;;;0.80;0.20;;;24.00;99.90;;;;;;5061905;28;20025;-77
2022/01/24 00:39:23;;;;;;;0.90;0.30;;;24.10;99.90;;;;;;5069310;28;20125;-74
2022/01/24 00:47:29;;;;;;;7.80;0.70;;;24.00;99.90;;;;;;5066289;28;20017;-76
2022/01/24 00:55:25;;;;;;;0.55;0.30;;;24.00;99.90;;;;;;5061595;28;20109;-74
2022/01/24 00:57:53;;;;;;;0.40;0.20;;;24.10;99.90;;;;;;5059918;28;20068;-76
2022/01/24 01:00:21;;;;;;;0.35;0.10;;;24.10;99.90;;;;;;5059683;28;20390;-75
2022/01/24 01:02:48;;;;;;;1.27;0.30;;;24.10;99.90;;;;;;5060359;28;20472;-75
2022/01/24 01:19:05;;;;;;;2.73;0.23;;;24.50;99.90;;;;;;5061156;28;20675;-76
2022/01/24 01:21:33;;;;;;;0.50;0.28;;;24.50;99.90;;;;;;5053784;28;20025;-76
2022/01/24 01:24:01;;;;;;;1.85;0.20;;;24.50;99.90;;;;;;5051508;28;20105;-74
2022/01/24 01:26:42;;;;;;;1.25;0.45;;;24.50;99.90;;;;;;5052793;28;20110;-74
2022/01/24 01:29:17;;;;;;;0.93;0.40;;;24.70;99.90;;;;;;5053058;28;20032;-74
2022/01/24 01:34:50;;;;;;;1.33;0.38;;;24.70;99.90;;;;;;5062452;28;20465;-76
2022/01/24 01:37:48;;;;;;;1.88;0.30;;;24.90;99.90;;;;;;5058297;28;20040;-76
2022/01/24 01:52:25;;;;;;;0.82;0.28;;;26.20;99.90;;;;;;5056700;28;20082;-74
2022/01/24 01:54:14;;;;;;;1.38;0.10;;;27.60;99.90;;;;;;5067934;28;20301;-75
2022/01/24 01:56:42;;;;;;;1.02;0.20;;;27.60;99.90;;;;;;5053105;28;20542;-75
2022/01/24 01:59:10;;;;;;;0.50;0.20;;;27.70;99.90;;;;;;5060820;28;20039;-75
2022/01/24 02:01:37;;;;;;;2.42;0.65;;;27.80;99.90;;;;;;5059649;28;20063;-74
2022/01/24 02:04:05;;;;;;;1.75;0.22;;;27.80;99.90;;;;;;5055925;28;20074;-74
2022/01/24 02:06:33;;;;;;;0.95;0.30;;;28.00;99.90;;;;;;5058356;28;20389;-75
2022/01/24 02:09:10;;;;;;;2.42;0.73;;;28.60;99.90;;;;;;5073425;28;20051;-75
2022/01/24 02:11:38;;;;;;;1.05;0.25;;;29.50;99.90;;;;;;5065911;28;20076;-76
2022/01/24 02:14:14;;;;;;;1.65;0.32;;;29.70;99.90;;;;;;5061406;28;20115;-74
2022/01/24 02:16:51;;;;;;;0.90;0.35;;;29.50;98.70;;;;;;5062604;28;20016;-74
2022/01/24 02:22:40;;;;;;;1.10;0.40;;;29.00;99.40;;;;;;5066591;28;20020;-74
2022/01/24 02:24:53;;;;;;;1.58;0.40;;;28.80;99.50;;;;;;5061394;28;20067;-75
2022/01/24 02:27:22;;;;;;;1.52;0.47;;;28.70;99.00;;;;;;5063870;28;20218;-75
2022/01/24 02:30:38;;;;;;;0.17;0.10;;;28.50;99.40;;;;;;5064664;28;20028;-75
2022/01/24 02:32:43;;;;;;;2.25;0.25;;;28.60;99.70;;;;;;5057827;28;20082;-75
2022/01/24 02:35:10;;;;;;;0.98;0.20;;;28.80;99.10;;;;;;5058902;28;20429;-76
2022/01/24 02:37:38;;;;;;;1.27;0.30;;;28.80;99.70;;;;;;5064310;28;20510;-75
2022/01/24 02:40:15;;;;;;;2.08;0.30;;;28.90;98.20;;;;;;5055200;28;20033;-75
2022/01/24 02:48:27;;;;;;;0.80;0.30;;;28.90;99.60;;;;;;5065471;28;20044;-74
2022/01/24 02:53:32;;;;;;;2.25;0.30;;;29.00;97.60;;;;;;5062897;28;20025;-75
2022/01/24 02:55:59;;;;;;;4.43;0.60;;;28.80;97.70;;;;;;5061565;28;20119;-76
2022/01/24 02:58:27;;;;;;;1.30;0.45;;;29.00;99.00;;;;;;5070257;28;20025;-77
2022/01/24 03:00:55;;;;;;;2.13;0.40;;;29.10;97.70;;;;;;5065206;28;20165;-77
2022/01/24 03:03:23;;;;;;;5.95;1.23;;;29.10;97.20;;;;;;5064456;28;20429;-76
2022/01/24 03:05:51;;;;;;;5.75;0.82;;;28.90;97.80;;;;;;5062115;28;20021;-76
2022/01/24 03:08:21;;;;;;;2.85;0.47;;;28.60;98.10;;;;;;5069600;28;20645;-76
2022/01/24 03:10:51;;;;;;;1.23;0.43;;;28.30;98.30;;;;;;5062067;28;20048;-76
2022/01/24 03:15:54;;;;;;;0.82;0.40;;;28.70;98.10;;;;;;5061809;28;20498;-75
2022/01/24 03:18:22;;;;;;;5.70;1.05;;;28.90;97.60;;;;;;5068329;28;20025;-75
2022/01/24 03:20:50;;;;;;;2.45;0.63;;;28.90;97.40;;;;;;5067836;28;20107;-77
2022/01/24 03:23:20;;;;;;;2.10;0.38;;;28.70;97.20;;;;;;5060462;28;20033;-76
2022/01/24 03:25:47;;;;;;;0.50;0.28;;;28.50;97.80;;;;;;5058477;28;20051;-75
2022/01/24 03:28:15;;;;;;;2.08;0.40;;;28.10;97.90;;;;;;5062963;28;20012;-74
2022/01/24 03:30:44;;;;;;;0.65;0.30;;;27.80;97.70;;;;;;5068191;28;20068;-76
2022/01/24 03:33:11;;;;;;;1.48;0.30;;;27.60;98.50;;;;;;5067883;28;20021;-76
2022/01/24 03:35:45;;;;;;;2.95;0.82;;;27.40;98.60;;;;;;5065971;28;20092;-75
2022/01/24 03:38:16;;;;;;;1.63;0.30;;;27.30;98.30;;;;;;5051600;28;20461;-77
2022/01/24 03:40:48;;;;;;;1.77;0.35;;;27.20;98.70;;;;;;5065676;28;20120;-76
2022/01/24 03:43:17;;;;;;;2.05;0.85;;;27.30;98.50;;;;;;5065111;28;20080;-75
2022/01/24 03:45:48;;;;;;;3.15;0.50;;;27.20;97.90;;;;;;5058629;28;20425;-77
2022/01/24 03:48:26;;;;;;;1.23;0.40;;;27.20;98.70;;;;;;5066191;28;20029;-76
2022/01/24 03:50:54;;;;;;;2.13;0.20;;;27.50;98.30;;;;;;5067259;28;20020;-76
2022/01/24 03:53:21;;;;;;;1.05;0.30;;;27.80;97.80;;;;;;5064903;28;20036;-77
2022/01/24 03:55:49;;;;;;;1.80;0.52;;;28.10;97.70;;;;;;5064122;28;20119;-77
2022/01/24 03:58:17;;;;;;;1.58;0.38;;;28.10;97.40;;;;;;5066413;28;20056;-77
2022/01/24 04:00:44;;;;;;;1.27;0.30;;;28.30;97.20;;;;;;5064660;28;20034;-75
2022/01/24 04:03:14;;;;;;;4.30;0.30;;;28.10;96.80;;;;;;5061742;28;20087;-76
2022/01/24 04:05:42;;;;;;;2.88;0.38;;;28.10;97.10;;;;;;5066629;28;20040;-76
2022/01/24 04:08:11;;;;;;;1.23;0.55;;;28.20;97.00;;;;;;5066637;28;20477;-76
2022/01/24 04:10:44;;;;;;;1.75;0.40;;;28.50;97.30;;;;;;5065650;28;20029;-76
2022/01/24 04:13:25;;;;;;;1.50;0.20;;;28.40;96.40;;;;;;5060893;28;20383;-77
2022/01/24 04:23:49;;;;;;;3.65;0.50;;;28.30;97.70;;;;;;5062366;28;20834;-76
2022/01/24 04:26:16;;;;;;;1.02;0.25;;;28.80;96.10;;;;;;5063586;28;20094;-75
2022/01/24 04:28:44;;;;;;;1.80;0.20;;;29.10;96.00;;;;;;5062859;28;20040;-74
2022/01/24 04:31:11;;;;;;;0.93;0.30;;;29.30;96.10;;;;;;5060005;28;20077;-76
2022/01/24 04:33:39;;;;;;;4.57;0.40;;;28.90;95.70;;;;;;5057194;28;20116;-75
2022/01/24 04:36:06;;;;;;;2.58;0.70;;;28.90;97.30;;;;;;5057577;28;20029;-75
2022/01/24 04:38:34;;;;;;;1.40;0.30;;;28.70;97.00;;;;;;5056011;28;20571;-76
2022/01/24 04:41:06;;;;;;;0.65;0.38;;;28.70;96.60;;;;;;5050301;28;20060;-76
2022/01/24 04:56:38;;;;;;;0.88;0.20;;;29.20;96.00;;;;;;5055562;28;20158;-77
2022/01/24 04:59:06;;;;;;;0.98;0.20;;;29.10;95.60;;;;;;5050656;28;20125;-76
2022/01/24 05:01:34;;;;;;;0.35;0.13;;;29.10;95.30;;;;;;5050307;28;20041;-76
2022/01/24 05:04:03;;;;;;;0.85;0.13;;;29.00;95.60;;;;;;5049942;28;20048;-75
2022/01/24 05:06:31;;;;;;;1.13;0.30;;;28.70;95.80;;;;;;5048703;28;20123;-76
2022/01/24 05:08:58;;;;;;;0.93;0.20;;;28.50;96.10;;;;;;5053290;28;20093;-75
2022/01/24 05:11:38;;;;;;;2.17;0.28;;;28.40;96.00;;;;;;5053536;28;20074;-75
2022/01/24 05:24:49;;;;;;;0.90;0.20;;;28.50;95.80;;;;;;5067038;28;20040;-76
2022/01/24 05:27:16;;;;;;;0.28;0.10;;;28.80;95.50;;;;;;5047980;28;20052;-76
2022/01/24 05:29:43;;;;;;;7.40;4.75;;;28.90;94.70;;;;;;5056106;28;20116;-76
2022/01/24 05:32:11;;;;;;;9.93;6.63;;;28.90;95.40;;;;;;5053276;28;20079;-76
2022/01/24 05:34:38;;;;;;;4.50;3.88;;;28.80;96.00;;;;;;5064573;28;20052;-76
2022/01/24 05:37:07;;;;;;;4.95;2.22;;;28.70;96.20;;;;;;5066133;28;20094;-76
2022/01/24 05:39:34;;;;;;;3.25;0.75;;;28.60;96.00;;;;;;5057390;28;20025;-76
2022/01/24 05:42:02;;;;;;;0.80;0.30;;;28.40;96.60;;;;;;5056500;28;20066;-76
2022/01/24 05:44:29;;;;;;;1.05;0.40;;;28.20;96.60;;;;;;5059737;28;20095;-76
2022/01/24 05:46:56;;;;;;;0.73;0.20;;;27.90;97.10;;;;;;5066844;28;20028;-77
2022/01/24 05:49:24;;;;;;;2.50;1.10;;;27.70;97.40;;;;;;5073122;28;20445;-77
2022/01/24 05:51:51;;;;;;;2.38;0.30;;;27.60;97.40;;;;;;5071905;28;20066;-76
2022/01/24 05:54:18;;;;;;;1.17;0.25;;;27.80;97.50;;;;;;5062939;28;20074;-78
2022/01/24 05:56:46;;;;;;;2.42;0.40;;;27.80;97.30;;;;;;5058864;28;20047;-78
2022/01/24 05:59:13;;;;;;;2.58;0.30;;;27.70;97.20;;;;;;5068040;28;20040;-77
2022/01/24 06:01:40;;;;;;;2.40;0.50;;;27.60;97.20;;;;;;5068863;28;20028;-77
2022/01/24 06:04:10;;;;;;;0.82;0.28;;;27.50;97.60;;;;;;5057929;28;20045;-76
2022/01/24 06:06:37;;;;;;;0.65;0.15;;;27.60;97.90;;;;;;5061699;28;20486;-76
2022/01/24 06:09:04;;;;;;;1.70;0.32;;;27.60;97.50;;;;;;5064875;28;20335;-77
2022/01/24 06:11:32;;;;;;;1.00;0.38;;;27.70;97.50;;;;;;5056073;28;20479;-77
2022/01/24 06:14:01;;;;;;;2.05;0.20;;;27.90;97.60;;;;;;5066505;28;20107;-76
2022/01/24 06:16:29;;;;;;;1.00;0.40;;;27.90;97.40;;;;;;5061010;28;20031;-77
2022/01/24 06:18:56;;;;;;;0.95;0.30;;;27.80;97.30;;;;;;5058985;28;20043;-76
2022/01/24 06:21:24;;;;;;;0.60;0.28;;;27.60;97.40;;;;;;5067879;28;20051;-77
2022/01/24 06:23:51;;;;;;;0.43;0.20;;;27.50;97.60;;;;;;5059758;28;20051;-76
2022/01/24 06:26:18;;;;;;;1.65;0.30;;;27.30;97.70;;;;;;5054163;28;20402;-76
2022/01/24 06:28:46;;;;;;;1.02;0.20;;;27.10;98.20;;;;;;5053875;28;20498;-76
2022/01/24 06:31:13;;;;;;;0.93;0.40;;;27.10;98.50;;;;;;5069270;28;20530;-75
2022/01/24 06:33:41;;;;;;;3.25;1.35;;;26.90;98.50;;;;;;5061656;28;20021;-75
2022/01/24 06:36:08;;;;;;;1.10;0.30;;;26.90;98.70;;;;;;5070585;28;20074;-76
2022/01/24 06:38:36;;;;;;;1.67;0.30;;;26.90;98.60;;;;;;5060778;28;20101;-75
2022/01/24 06:41:03;;;;;;;2.22;0.20;;;26.90;98.50;;;;;;5064895;28;20123;-76
2022/01/24 06:43:30;;;;;;;2.67;0.30;;;27.00;98.50;;;;;;5070679;28;20039;-75
2022/01/24 06:45:58;;;;;;;2.45;0.32;;;27.00;98.60;;;;;;5070913;28;20040;-75
2022/01/24 06:48:25;;;;;;;2.80;0.82;;;27.00;98.60;;;;;;5057314;28;20044;-75
2022/01/24 06:50:52;;;;;;;1.10;0.55;;;27.00;98.40;;;;;;5045423;28;20036;-76
2022/01/24 06:53:20;;;;;;;1.83;0.32;;;27.10;98.60;;;;;;5054497;28;20127;-76
2022/01/24 06:55:47;;;;;;;1.88;1.17;;;27.30;98.20;;;;;;5064820;28;20009;-76
2022/01/24 06:58:14;;;;;;;2.33;0.50;;;27.40;98.40;;;;;;5067569;28;20039;-76
2022/01/24 07:00:42;;;;;;;2.95;0.60;;;27.40;98.00;;;;;;5066285;28;20029;-75
2022/01/24 07:03:09;;;;;;;2.50;0.50;;;27.20;98.20;;;;;;5068661;28;20029;-75
2022/01/24 07:05:36;;;;;;;1.80;0.30;;;27.20;98.60;;;;;;5060972;28;20102;-75
2022/01/24 07:08:04;;;;;;;1.70;1.02;;;27.10;98.60;;;;;;5058541;28;20407;-78
2022/01/24 07:10:33;;;;;;;2.58;0.65;;;27.00;98.80;;;;;;5067784;28;20105;-79
2022/01/24 07:13:00;;;;;;;3.47;0.82;;;26.90;98.90;;;;;;5065083;28;20020;-78
2022/01/24 07:15:34;;;;;;;3.80;0.90;;;26.90;99.10;;;;;;5071510;28;20201;-77
2022/01/24 07:20:35;;;;;;;3.88;1.38;;;26.50;99.30;;;;;;5068895;28;20368;-76
2022/01/24 07:23:03;;;;;;;2.78;1.73;;;26.20;99.80;;;;;;5069124;28;20246;-76
2022/01/24 07:25:30;;;;;;;3.05;0.85;;;26.20;99.90;;;;;;5061387;28;20029;-76
2022/01/24 07:27:58;;;;;;;0.60;0.40;;;26.00;99.90;;;;;;5064657;28;20036;-76
2022/01/24 07:30:25;;;;;;;1.50;0.77;;;25.80;99.90;;;;;;5053539;28;20043;-76
2022/01/24 07:32:53;;;;;;;3.30;0.65;;;25.70;99.90;;;;;;5073089;28;20016;-79
2022/01/24 07:35:20;;;;;;;1.25;0.50;;;25.70;99.90;;;;;;5092271;28;20027;-75
2022/01/24 07:37:47;;;;;;;4.43;0.50;;;25.60;99.90;;;;;;5074041;28;20382;-78
2022/01/24 07:40:15;;;;;;;1.95;0.30;;;25.60;99.90;;;;;;5071839;28;20099;-76
2022/01/24 07:42:55;;;;;;;5.47;0.52;;;25.50;99.90;;;;;;5069894;28;20029;-77
2022/01/24 07:45:26;;;;;;;2.08;0.30;;;25.40;99.90;;;;;;5072940;28;20432;-79
2022/01/24 07:47:53;;;;;;;1.77;0.30;;;25.30;99.90;;;;;;5063253;28;20116;-79
2022/01/24 07:50:24;;;;;;;2.08;0.60;;;25.20;99.90;;;;;;5063572;28;20459;-77
2022/01/24 07:52:51;;;;;;;0.50;0.43;;;25.10;99.90;;;;;;5066007;28;20028;-78
2022/01/24 07:55:19;;;;;;;1.77;0.40;;;25.10;99.90;;;;;;5071026;28;20021;-77
2022/01/24 07:57:47;;;;;;;2.00;0.40;;;25.00;99.90;;;;;;5056323;28;20463;-76
2022/01/24 08:00:15;;;;;;;2.42;0.50;;;24.90;99.90;;;;;;5051411;28;20032;-80
2022/01/24 08:02:42;;;;;;;3.15;0.30;;;24.80;99.90;;;;;;5061002;28;20040;-76
2022/01/24 08:05:11;;;;;;;2.97;0.40;;;24.80;99.90;;;;;;5071279;28;20075;-75
2022/01/24 08:07:39;;;;;;;3.03;0.47;;;24.80;99.90;;;;;;5066856;28;20060;-77
2022/01/24 08:10:09;;;;;;;4.68;0.43;;;24.70;99.90;;;;;;5070138;28;20033;-77
2022/01/24 08:12:38;;;;;;;3.63;1.15;;;24.70;99.90;;;;;;5064651;28;20420;-81
2022/01/24 08:15:08;;;;;;;1.05;0.30;;;24.70;99.90;;;;;;5065610;28;20067;-76
2022/01/24 08:17:35;;;;;;;1.95;0.40;;;24.60;99.90;;;;;;5069350;28;20431;-76
2022/01/24 08:20:03;;;;;;;1.45;0.20;;;24.50;99.90;;;;;;5071329;28;20114;-76
2022/01/24 08:22:30;;;;;;;0.90;0.30;;;24.40;99.90;;;;;;5066356;28;20185;-78
2022/01/24 08:24:58;;;;;;;0.50;0.32;;;24.30;99.90;;;;;;5071095;28;20246;-76
2022/01/24 08:27:25;;;;;;;4.80;1.20;;;24.30;99.90;;;;;;5066492;28;20025;-78
2022/01/24 08:29:53;;;;;;;2.92;0.50;;;24.20;99.90;;;;;;5070795;28;20097;-76
2022/01/24 08:32:20;;;;;;;3.13;0.55;;;24.20;99.90;;;;;;5068477;28;20116;-74
2022/01/24 08:34:47;;;;;;;2.47;1.02;;;24.20;99.90;;;;;;5070785;28;20410;-75
2022/01/24 08:37:15;;;;;;;1.73;0.50;;;24.10;99.90;;;;;;5068067;28;20029;-75
2022/01/24 08:39:44;;;;;;;3.92;0.30;;;24.00;99.90;;;;;;5060883;28;20437;-75
2022/01/24 08:47:07;;;;;;;1.83;0.30;;;23.90;99.90;;;;;;5058436;28;20033;-76
2022/01/24 08:49:37;;;;;;;6.07;1.45;;;23.70;99.90;;;;;;5069883;28;20058;-75
2022/01/24 08:52:04;;;;;;;2.63;0.40;;;23.70;99.90;;;;;;5060961;28;20033;-76
2022/01/24 08:54:33;;;;;;;1.02;0.40;;;23.50;99.90;;;;;;5050893;28;20036;-75
2022/01/24 08:57:00;;;;;;;2.05;0.32;;;23.40;99.90;;;;;;5066562;28;20037;-76
2022/01/24 08:59:28;;;;;;;2.53;0.88;;;23.30;99.90;;;;;;5054540;28;20119;-77
2022/01/24 09:01:55;;;;;;;2.42;0.38;;;23.30;99.90;;;;;;5064390;28;20101;-75
2022/01/24 09:04:22;;;;;;;3.10;1.15;;;23.20;99.90;;;;;;5069895;28;20028;-76
2022/01/24 09:06:51;;;;;;;3.10;0.60;;;23.10;99.90;;;;;;5065432;28;20556;-76
2022/01/24 09:09:19;;;;;;;1.15;0.20;;;23.00;99.90;;;;;;5070869;28;20475;-75
2022/01/24 09:11:47;;;;;;;2.55;0.85;;;23.00;99.90;;;;;;5062624;28;20431;-76
2022/01/24 09:14:15;;;;;;;2.63;0.47;;;22.90;99.90;;;;;;5061912;28;20161;-76
2022/01/24 09:16:42;;;;;;;3.45;0.35;;;22.80;99.90;;;;;;5058817;28;20021;-75
2022/01/24 09:19:10;;;;;;;6.28;1.17;;;22.80;99.90;;;;;;5068026;28;20588;-76
2022/01/24 09:21:37;;;;;;;3.40;0.30;;;22.80;99.90;;;;;;5069384;28;20036;-78
2022/01/24 09:24:05;;;;;;;1.70;0.30;;;22.70;99.90;;;;;;5069796;28;20031;-75
2022/01/24 09:26:33;;;;;;;5.70;0.57;;;22.70;99.90;;;;;;5068621;28;20059;-77
2022/01/24 09:29:01;;;;;;;2.72;0.45;;;22.70;99.90;;;;;;5070051;28;20013;-76
2022/01/24 09:31:28;;;;;;;2.42;0.43;;;22.60;99.90;;;;;;5069019;28;20036;-76
2022/01/24 09:33:56;;;;;;;3.13;0.30;;;22.60;99.90;;;;;;5069945;28;20141;-79
2022/01/24 09:36:24;;;;;;;2.72;0.40;;;22.60;99.90;;;;;;5064413;28;20059;-78
2022/01/24 09:38:52;;;;;;;10.52;1.65;;;22.50;99.90;;;;;;5067717;28;20051;-77
2022/01/24 09:41:19;;;;;;;4.30;0.50;;;22.50;99.90;;;;;;5054362;28;20467;-78
2022/01/24 09:43:47;;;;;;;3.83;1.05;;;22.40;99.90;;;;;;5070808;28;20099;-79
2022/01/24 09:46:14;;;;;;;4.68;0.40;;;22.40;99.90;;;;;;5057168;28;20503;-81
2022/01/24 09:48:42;;;;;;;5.82;0.50;;;22.40;99.90;;;;;;5070663;28;20463;-77
2022/01/24 09:51:10;;;;;;;3.55;0.70;;;22.40;99.90;;;;;;5067825;28;20053;-77
2022/01/24 09:53:38;;;;;;;4.40;0.50;;;22.40;99.90;;;;;;5058199;28;20546;-77
2022/01/24 09:56:07;;;;;;;1.40;0.40;;;22.30;99.90;;;;;;5064107;28;20033;-79
2022/01/24 09:58:36;;;;;;;4.50;1.00;;;22.30;99.90;;;;;;5064442;28;20077;-76
2022/01/24 10:01:06;;;;;;;2.40;0.40;;;22.30;99.90;;;;;;5068954;28;20032;-75
2022/01/24 10:03:34;;;;;;;1.67;0.40;;;22.40;99.90;;;;;;5059693;28;20494;-78
2022/01/24 10:06:01;;;;;;;4.10;1.00;;;22.40;99.90;;;;;;5066399;28;20037;-77
2022/01/24 10:08:30;;;;;;;3.22;0.90;;;22.50;99.90;;;;;;5064883;28;20025;-76
2022/01/24 10:11:04;;;;;;;3.03;0.60;;;22.50;99.90;;;;;;5056083;28;20033;-75
2022/01/24 10:19:38;;;;;;;5.72;0.77;;;22.50;99.90;;;;;;5056402;28;20611;-78
2022/01/24 10:22:05;;;;;;;;;;;22.50;99.90;;;;;;5049285;28;20545;-78
2022/01/24 10:24:40;;;;;;;2.90;0.57;;;22.40;99.90;;;;;;5067926;28;19916;-77
2022/01/24 10:27:15;;;;;;;3.47;0.65;;;22.40;99.90;;;;;;5064321;28;20041;-76
2022/01/24 10:29:52;;;;;;;2.25;0.75;;;22.30;99.90;;;;;;5058860;28;20116;-79
2022/01/24 10:32:36;;;;;;;4.15;0.93;;;22.30;99.90;;;;;;5062482;28;20082;-76
2022/01/24 10:35:31;;;;;;;0.70;0.40;;;22.20;99.90;;;;;;5059452;28;20112;-79
2022/01/24 10:38:44;;;;;;;3.42;0.70;;;22.10;99.90;;;;;;5069324;28;20043;-80
2022/01/24 10:43:42;;;;;;;2.60;0.40;;;22.00;99.90;;;;;;5068483;28;20497;-79
2022/01/24 10:46:10;;;;;;;3.60;0.60;;;22.00;99.90;;;;;;5055270;28;20029;-79
2022/01/24 10:48:40;;;;;;;4.65;0.90;;;22.00;99.90;;;;;;5066475;28;20032;-81
2022/01/24 10:51:17;;;;;;;3.72;1.00;;;22.00;99.90;;;;;;5055587;28;20032;-78
2022/01/24 10:53:50;;;;;;;3.92;1.10;;;22.00;99.90;;;;;;5064085;28;20029;-76
2022/01/24 10:56:40;;;;;;;4.22;1.17;;;22.00;99.90;;;;;;5068847;28;20032;-79
2022/01/24 10:59:11;;;;;;;4.07;0.65;;;22.00;99.90;;;;;;5054038;28;20039;-81
2022/01/24 11:01:40;;;;;;;4.22;1.05;;;22.00;99.90;;;;;;5074558;28;20440;-77
2022/01/24 11:04:10;;;;;;;4.00;0.40;;;22.10;99.90;;;;;;5061783;28;20641;-80
2022/01/24 11:06:43;;;;;;;3.95;0.82;;;22.10;99.90;;;;;;5063541;28;20046;-80
2022/01/24 11:09:14;;;;;;;3.67;0.63;;;22.10;99.90;;;;;;5068344;28;20028;-80
2022/01/24 11:11:42;;;;;;;7.63;1.23;;;22.10;99.90;;;;;;5062499;28;20032;-76
2022/01/24 11:14:15;;;;;;;4.82;1.42;;;22.20;99.90;;;;;;5070172;28;20024;-76
2022/01/24 11:16:43;;;;;;;5.40;1.23;;;22.20;99.90;;;;;;5066451;28;20549;-78
2022/01/24 11:19:19;;;;;;;10.23;2.00;;;22.20;99.90;;;;;;5065934;28;20032;-78
2022/01/24 11:21:47;;;;;;;2.90;0.90;;;22.30;99.90;;;;;;5057234;28;20036;-78
2022/01/24 11:24:19;;;;;;;6.15;0.77;;;22.30;99.90;;;;;;5072295;28;20563;-79
2022/01/24 11:26:48;;;;;;;9.43;0.90;;;22.30;99.90;;;;;;5070018;28;20136;-80
2022/01/24 11:29:19;;;;;;;3.35;0.85;;;22.40;99.90;;;;;;5070398;28;20028;-78
2022/01/24 11:31:56;;;;;;;4.70;1.17;;;22.30;99.90;;;;;;5071590;28;20021;-83
2022/01/24 11:34:36;;;;;;;2.05;0.93;;;22.40;99.90;;;;;;5071848;28;20037;-80
2022/01/24 11:37:06;;;;;;;2.13;0.60;;;22.40;99.90;;;;;;5061260;28;20040;-78
2022/01/24 11:39:35;;;;;;;6.20;1.50;;;22.40;99.90;;;;;;5063357;28;20487;-80
2022/01/24 11:42:03;;;;;;;3.60;0.47;;;22.40;99.90;;;;;;5050523;28;20400;-82
2022/01/24 11:44:50;;;;;;;2.90;1.10;;;22.40;99.90;;;;;;5051627;28;20041;-87
2022/01/24 11:47:23;;;;;;;5.00;1.50;;;22.40;99.90;;;;;;5056667;28;20033;-78
2022/01/24 11:49:53;;;;;;;5.07;1.02;;;22.30;99.90;;;;;;5053311;28;20033;-81
2022/01/24 11:52:32;;;;;;;3.63;1.65;;;22.30;99.90;;;;;;5057822;28;20388;-82
2022/01/24 11:55:30;;;;;;;6.75;0.77;;;22.30;99.90;;;;;;5068154;28;20080;-76
2022/01/24 11:58:06;;;;;;;3.63;1.08;;;22.30;99.90;;;;;;5057763;28;20021;-82
2022/01/24 12:00:40;;;;;;;5.38;0.85;;;22.30;99.90;;;;;;5063285;28;20039;-82
2022/01/24 12:03:28;;;;;;;8.98;1.00;;;22.30;99.90;;;;;;5061786;28;20024;-84
2022/01/24 12:06:08;;;;;;;3.47;0.43;;;22.20;99.90;;;;;;5060509;28;20033;-79
2022/01/24 12:08:43;;;;;;;1.98;0.63;;;22.20;99.90;;;;;;5051640;28;20115;-80
2022/01/24 12:11:27;;;;;;;6.63;1.15;;;22.30;99.90;;;;;;5065646;28;20108;-81
2022/01/24 12:14:01;;;;;;;2.35;0.70;;;22.20;99.90;;;;;;5065080;28;20036;-76
2022/01/24 12:16:37;;;;;;;3.65;1.25;;;22.20;99.90;;;;;;5065540;28;20032;-86
2022/01/24 12:19:04;;;;;;;;;;;22.20;99.90;;;;;;5063845;28;20033;-78
2022/01/24 12:21:37;;;;;;;6.18;0.98;;;22.10;99.90;;;;;;5063741;28;19915;-81
2022/01/24 12:24:13;;;;;;;4.65;0.68;;;22.10;99.90;;;;;;5063203;28;20404;-81
2022/01/24 12:26:43;;;;;;;3.72;0.63;;;22.10;99.90;;;;;;5063753;28;20056;-78
2022/01/24 12:29:17;;;;;;;3.63;1.05;;;22.10;99.90;;;;;;5062940;28;20078;-79
2022/01/24 12:31:48;;;;;;;2.55;1.00;;;22.10;99.90;;;;;;5065285;28;20047;-76
2022/01/24 12:34:24;;;;;;;3.70;0.55;;;22.10;99.90;;;;;;5067048;28;20021;-80
2022/01/24 12:37:12;;;;;;;2.97;0.60;;;22.10;99.90;;;;;;5062104;28;20090;-79
2022/01/24 12:39:51;;;;;;;4.65;0.68;;;22.10;99.90;;;;;;5068583;28;20036;-80
2022/01/24 12:42:39;;;;;;;1.48;0.95;;;22.10;99.90;;;;;;5060988;28;20184;-78
2022/01/24 12:48:17;;;;;;;3.63;0.55;;;22.10;99.90;;;;;;5060201;28;20123;-77
2022/01/24 12:50:47;;;;;;;4.38;0.90;;;22.10;99.90;;;;;;5058968;28;20028;-83
2022/01/24 12:53:16;;;;;;;3.90;0.60;;;22.10;99.90;;;;;;5063918;28;20111;-78
2022/01/24 12:55:45;;;;;;;4.70;1.17;;;22.10;99.90;;;;;;5067982;28;20067;-79
2022/01/24 12:58:12;;;;;;;1.27;0.40;;;22.10;99.90;;;;;;5063650;28;20390;-80
2022/01/24 13:00:45;;;;;;;3.42;0.47;;;22.10;99.90;;;;;;5068413;28;20076;-77
2022/01/24 13:03:13;;;;;;;8.40;1.55;;;22.10;99.90;;;;;;5071459;28;20032;-78
2022/01/24 13:05:40;;;;;;;4.57;0.60;;;22.10;99.90;;;;;;5069910;28;20456;-80
2022/01/24 13:08:07;;;;;;;5.70;1.13;;;22.10;99.90;;;;;;5064560;28;20024;-82
2022/01/24 13:10:35;;;;;;;3.20;0.55;;;22.10;99.90;;;;;;5063565;28;20024;-80
2022/01/24 13:13:09;;;;;;;5.10;0.90;;;22.10;99.90;;;;;;5062259;28;20092;-77
2022/01/24 13:21:17;;;;;;;5.78;0.82;;;22.00;99.90;;;;;;5055539;28;20510;-78
2022/01/24 13:23:51;;;;;;;6.35;1.13;;;22.00;99.90;;;;;;5066865;28;20031;-79
2022/01/24 13:26:18;;;;;;;4.22;0.65;;;21.90;99.90;;;;;;5067508;28;20036;-82
2022/01/24 13:28:46;;;;;;;3.72;0.70;;;21.90;99.90;;;;;;5055920;28;20032;-78
2022/01/24 13:31:14;;;;;;;3.88;1.30;;;22.00;99.90;;;;;;5051665;28;20032;-83
2022/01/24 13:33:46;;;;;;;5.15;0.60;;;21.90;99.90;;;;;;5070636;28;20082;-85
2022/01/24 13:36:16;;;;;;;6.18;1.27;;;21.90;99.90;;;;;;5062714;28;20028;-85
2022/01/24 13:38:48;;;;;;;8.02;1.17;;;21.90;99.90;;;;;;5061599;28;20104;-76
2022/01/24 13:41:23;;;;;;;3.25;0.90;;;21.80;99.90;;;;;;5056243;28;20040;-80
2022/01/24 13:43:55;;;;;;;3.50;0.75;;;21.80;99.90;;;;;;5064351;28;20032;-80
2022/01/24 13:46:24;;;;;;;2.78;0.82;;;21.90;99.90;;;;;;5067473;28;20549;-83
2022/01/24 13:49:15;;;;;;;3.45;1.13;;;21.90;99.90;;;;;;5058379;28;20036;-81
2022/01/24 13:51:51;;;;;;;5.43;1.05;;;21.90;99.90;;;;;;5060607;28;20035;-81
2022/01/24 13:54:20;;;;;;;2.75;0.82;;;21.90;99.90;;;;;;5057472;28;20099;-77
2022/01/24 13:56:55;;;;;;;4.28;1.23;;;21.90;99.90;;;;;;5060003;28;20028;-84
2022/01/24 13:59:32;;;;;;;3.03;0.50;;;21.90;99.90;;;;;;5071748;28;20119;-80
2022/01/24 14:02:19;;;;;;;8.15;1.05;;;21.80;99.90;;;;;;5056531;28;20025;-81
2022/01/24 14:04:54;;;;;;;3.92;0.90;;;21.80;99.90;;;;;;5059479;28;20107;-83
2022/01/24 14:07:32;;;;;;;6.23;0.77;;;21.80;99.90;;;;;;5058045;28;20340;-78
2022/01/24 14:10:03;;;;;;;5.80;0.80;;;21.80;99.90;;;;;;5054233;28;20025;-86
2022/01/24 14:12:39;;;;;;;6.93;1.10;;;21.80;99.90;;;;;;5062587;28;20027;-80
2022/01/24 14:15:19;;;;;;;3.42;0.75;;;21.70;99.90;;;;;;5056778;28;20140;-75
2022/01/24 14:20:35;;;;;;;2.28;0.45;;;21.70;99.90;;;;;;5068061;28;20035;-80
2022/01/24 14:23:05;;;;;;;3.80;0.68;;;21.70;99.90;;;;;;5071011;28;20471;-81
2022/01/24 14:25:34;;;;;;;2.05;0.50;;;21.70;99.90;;;;;;5069578;28;20098;-76
2022/01/24 14:28:09;;;;;;;6.03;0.60;;;21.70;99.90;;;;;;5061248;28;20024;-78
2022/01/24 14:30:41;;;;;;;9.13;1.60;;;21.70;99.90;;;;;;5068146;28;20029;-79
2022/01/24 14:33:41;;;;;;;2.53;0.65;;;21.70;99.90;;;;;;5067090;28;20123;-82
2022/01/24 14:36:15;;;;;;;3.42;1.13;;;21.70;99.90;;;;;;5048692;28;20043;-76
2022/01/24 14:38:49;;;;;;;6.13;0.70;;;21.60;99.90;;;;;;5072781;28;20079;-79
2022/01/24 14:41:29;;;;;;;5.03;0.70;;;21.70;99.90;;;;;;5072528;28;20072;-76
2022/01/24 14:46:45;;;;;;;4.20;1.83;;;21.70;99.90;;;;;;5058388;28;20039;-81
2022/01/24 14:49:20;;;;;;;3.35;0.90;;;21.60;99.90;;;;;;5069854;28;20060;-76
2022/01/24 14:51:48;;;;;;;6.90;0.83;;;21.60;99.90;;;;;;5066831;28;20032;-77
2022/01/24 14:54:24;;;;;;;6.00;0.98;;;21.60;99.90;;;;;;5072244;28;20501;-76
2022/01/24 14:56:54;;;;;;;2.25;0.75;;;21.60;99.90;;;;;;5065931;28;20035;-76
2022/01/24 14:59:23;;;;;;;5.82;0.98;;;21.60;99.90;;;;;;5072543;28;20025;-78
2022/01/24 15:01:50;;;;;;;2.40;0.50;;;21.60;99.90;;;;;;5059949;28;20025;-76
2022/01/24 15:04:18;;;;;;;2.95;1.27;;;21.60;99.90;;;;;;5058806;28;20120;-76
2022/01/24 15:06:46;;;;;;;5.97;1.88;;;21.60;99.90;;;;;;5067856;28;20055;-76
2022/01/24 15:09:16;;;;;;;3.88;0.90;;;21.60;99.90;;;;;;5071606;28;20124;-77